Time;durP1;ratioP1;P1;durP2;ratioP2;P2;SDS_P1;SDS_P2;PMS_P1;PMS_P2;Temp;Humidity;BMP_temperature;BMP_pressure;BME280_temperature;BME280_humidity;BME280_pressure;Samples;Min_cycle;Max_cycle;Signal;HPM_P1;HPM_P2
2023/05/14 00:02:24;;;;;;;2.30;2.20;;;22.00;73.30;;;;;;5076320;28;20531;-83
2023/05/14 00:04:50;;;;;;;2.20;2.00;;;22.00;73.30;;;;;;5076208;28;20449;-81
2023/05/14 00:07:17;;;;;;;2.93;2.73;;;21.90;73.20;;;;;;5076054;28;20476;-81
2023/05/14 00:09:44;;;;;;;2.97;2.77;;;22.00;73.30;;;;;;5076063;28;20485;-81
2023/05/14 00:12:11;;;;;;;2.73;2.53;;;22.00;73.30;;;;;;5076112;28;20537;-81
2023/05/14 00:14:37;;;;;;;2.53;2.33;;;22.00;73.40;;;;;;5076006;28;21061;-81
2023/05/14 00:17:05;;;;;;;2.87;2.67;;;22.00;73.30;;;;;;5076101;28;20527;-81
2023/05/14 00:19:34;;;;;;;2.30;2.10;;;22.00;73.40;;;;;;5076047;28;20440;-82
2023/05/14 00:22:01;;;;;;;2.77;2.57;;;22.00;73.30;;;;;;5075953;28;20448;-81
2023/05/14 00:24:27;;;;;;;3.20;3.00;;;22.00;73.40;;;;;;5076060;28;20539;-81
2023/05/14 00:26:54;;;;;;;2.10;2.00;;;22.00;73.30;;;;;;5075913;28;20452;-81
2023/05/14 00:29:21;;;;;;;2.83;2.63;;;21.90;73.30;;;;;;5075909;28;21041;-82
2023/05/14 00:31:48;;;;;;;3.20;2.40;;;21.90;73.30;;;;;;5075800;28;20438;-81
2023/05/14 00:34:15;;;;;;;4.33;2.80;;;21.90;74.10;;;;;;5075576;28;20489;-81
2023/05/14 00:36:43;;;;;;;3.00;2.80;;;21.90;73.30;;;;;;5075745;28;20471;-82
2023/05/14 00:39:11;;;;;;;2.90;2.70;;;21.90;73.30;;;;;;5075679;28;20446;-83
2023/05/14 00:41:38;;;;;;;2.83;2.63;;;21.90;73.30;;;;;;5075574;28;20488;-82
2023/05/14 00:44:05;;;;;;;3.13;2.83;;;21.90;73.20;;;;;;5075485;28;20443;-82
2023/05/14 00:46:32;;;;;;;2.73;2.53;;;21.90;73.20;;;;;;5075411;28;20476;-82
2023/05/14 00:48:59;;;;;;;2.87;2.67;;;21.90;73.30;;;;;;5075536;28;20917;-82
2023/05/14 00:51:26;;;;;;;2.53;2.33;;;21.90;73.20;;;;;;5075450;28;20441;-82
2023/05/14 00:53:55;;;;;;;2.37;2.27;;;21.90;73.30;;;;;;5075323;28;20491;-81
2023/05/14 00:56:22;;;;;;;2.40;2.30;;;21.90;73.20;;;;;;5075254;28;20434;-82
2023/05/14 00:58:49;;;;;;;2.90;2.50;;;21.90;73.30;;;;;;5075060;28;20441;-81
2023/05/14 01:01:16;;;;;;;2.87;2.63;;;21.90;73.30;;;;;;5074660;28;20461;-81
2023/05/14 01:03:44;;;;;;;2.60;2.40;;;21.90;73.20;;;;;;5075274;28;20524;-81
2023/05/14 01:06:17;;;;;;;2.60;2.40;;;21.90;73.20;;;;;;5075060;28;20531;-81
2023/05/14 01:08:53;;;;;;;2.63;2.43;;;21.90;73.20;;;;;;5075190;28;20441;-82
2023/05/14 01:11:26;;;;;;;2.90;2.70;;;21.90;73.30;;;;;;5075090;28;20483;-82
2023/05/14 01:14:03;;;;;;;3.27;3.00;;;21.90;73.20;;;;;;5074979;28;20565;-82
2023/05/14 01:16:33;;;;;;;2.77;2.57;;;21.90;73.20;;;;;;5074987;28;20942;-82
2023/05/14 01:19:01;;;;;;;2.90;2.70;;;21.90;73.30;;;;;;5074901;28;20931;-82
2023/05/14 01:21:37;;;;;;;3.07;2.63;;;21.90;73.20;;;;;;5074803;28;20928;-82
2023/05/14 01:24:04;;;;;;;3.60;3.40;;;21.90;73.20;;;;;;5074704;28;20446;-82
2023/05/14 01:26:31;;;;;;;2.87;2.67;;;21.90;73.30;;;;;;5074698;28;20443;-81
2023/05/14 01:29:03;;;;;;;2.20;2.10;;;21.90;74.10;;;;;;5074569;28;20447;-82
2023/05/14 01:31:32;;;;;;;3.07;2.87;;;21.90;73.20;;;;;;5074690;28;20927;-82
2023/05/14 01:34:00;;;;;;;2.90;2.70;;;21.90;73.20;;;;;;5074604;28;20484;-81
2023/05/14 01:36:28;;;;;;;2.47;2.30;;;21.90;73.20;;;;;;5074870;28;20445;-81
2023/05/14 01:38:57;;;;;;;2.50;2.30;;;21.90;73.30;;;;;;5074690;28;20530;-81
2023/05/14 01:41:26;;;;;;;2.70;2.27;;;21.90;73.30;;;;;;5074473;28;20448;-88
2023/05/14 01:43:53;;;;;;;2.30;2.20;;;21.90;73.20;;;;;;5074350;28;20437;-82
2023/05/14 01:46:22;;;;;;;3.03;2.73;;;21.90;73.20;;;;;;5074170;28;20438;-82
2023/05/14 01:48:49;;;;;;;2.60;2.40;;;21.90;73.20;;;;;;5074265;28;20558;-82
2023/05/14 01:51:16;;;;;;;2.73;2.53;;;21.90;74.00;;;;;;5074278;28;20443;-82
2023/05/14 01:53:44;;;;;;;2.67;2.47;;;21.90;73.20;;;;;;5074223;28;20493;-82
2023/05/14 01:56:13;;;;;;;2.80;2.60;;;21.90;73.20;;;;;;5074027;28;20450;-82
2023/05/14 01:58:40;;;;;;;2.73;2.53;;;21.90;74.10;;;;;;5074017;28;20438;-82
2023/05/14 02:01:06;;;;;;;3.00;2.80;;;21.90;73.20;;;;;;5074029;28;20543;-83
2023/05/14 02:03:33;;;;;;;2.53;2.33;;;21.80;73.10;;;;;;5074114;28;20436;-83
2023/05/14 02:06:00;;;;;;;2.93;2.70;;;21.80;73.10;;;;;;5073819;28;20539;-82
2023/05/14 02:08:27;;;;;;;2.70;2.50;;;21.80;73.10;;;;;;5073898;28;20451;-82
2023/05/14 02:10:54;;;;;;;7.50;2.87;;;21.80;73.10;;;;;;5073174;28;20487;-87
2023/05/14 02:13:22;;;;;;;2.27;2.17;;;21.80;73.10;;;;;;5074131;28;20485;-82
2023/05/14 02:15:49;;;;;;;2.40;2.20;;;21.80;73.10;;;;;;5075230;28;20442;-82
2023/05/14 02:18:16;;;;;;;2.40;2.30;;;21.80;73.10;;;;;;5074466;28;20438;-82
2023/05/14 02:20:43;;;;;;;2.27;2.10;;;21.80;73.00;;;;;;5073958;28;20436;-82
2023/05/14 02:23:10;;;;;;;2.53;2.33;;;21.80;73.00;;;;;;5073583;28;20441;-88
2023/05/14 02:25:37;;;;;;;3.00;2.80;;;21.80;74.10;;;;;;5073158;28;20441;-82
2023/05/14 02:28:04;;;;;;;2.33;2.20;;;21.80;73.10;;;;;;5073713;28;20443;-89
2023/05/14 02:30:32;;;;;;;2.73;2.27;;;21.80;73.10;;;;;;5073409;28;20464;-82
2023/05/14 02:32:58;;;;;;;2.80;2.60;;;21.80;73.10;;;;;;5073500;28;20587;-86
2023/05/14 02:35:26;;;;;;;2.80;2.60;;;21.80;73.10;;;;;;5073457;28;20464;-82
2023/05/14 02:37:53;;;;;;;2.60;2.40;;;21.80;73.10;;;;;;5073245;28;20518;-83
2023/05/14 02:40:19;;;;;;;2.70;2.50;;;21.80;73.10;;;;;;5073430;28;20477;-83
2023/05/14 02:42:46;;;;;;;2.40;2.20;;;21.80;74.00;;;;;;5073430;28;20868;-83
2023/05/14 02:45:13;;;;;;;3.20;2.50;;;21.80;73.10;;;;;;5073274;28;20566;-82
2023/05/14 02:47:42;;;;;;;2.73;2.50;;;21.80;73.20;;;;;;5073487;28;20467;-82
2023/05/14 02:50:10;;;;;;;2.53;2.33;;;21.80;73.10;;;;;;5073339;28;21290;-82
2023/05/14 02:52:36;;;;;;;2.57;2.37;;;21.80;73.10;;;;;;5073375;28;20446;-88
2023/05/14 02:55:04;;;;;;;2.50;2.40;;;21.80;73.20;;;;;;5073147;28;20485;-83
2023/05/14 02:57:30;;;;;;;2.43;2.23;;;21.80;73.20;;;;;;5073256;28;20452;-83
2023/05/14 02:59:57;;;;;;;2.43;2.30;;;21.80;73.10;;;;;;5073089;28;21023;-83
2023/05/14 03:02:24;;;;;;;2.40;2.30;;;21.80;73.10;;;;;;5073130;28;20524;-82
2023/05/14 03:04:52;;;;;;;2.73;2.63;;;21.80;73.10;;;;;;5073006;28;20485;-82
2023/05/14 03:07:19;;;;;;;3.10;2.90;;;21.80;73.20;;;;;;5073308;28;20436;-82
2023/05/14 03:09:46;;;;;;;2.83;2.63;;;21.70;73.10;;;;;;5072924;28;20487;-82
2023/05/14 03:12:13;;;;;;;2.40;2.30;;;21.70;73.00;;;;;;5073116;28;20530;-86
2023/05/14 03:14:40;;;;;;;2.53;2.33;;;21.70;73.10;;;;;;5072911;28;20520;-82
2023/05/14 03:17:07;;;;;;;3.93;2.90;;;21.80;73.20;;;;;;5072933;28;20857;-82
2023/05/14 03:19:34;;;;;;;2.00;1.90;;;21.70;73.00;;;;;;5073039;28;20538;-82
2023/05/14 03:22:02;;;;;;;2.57;2.30;;;21.70;73.00;;;;;;5073366;28;20464;-82
2023/05/14 03:24:29;;;;;;;2.53;2.43;;;21.70;73.00;;;;;;5076834;28;20432;-82
2023/05/14 03:26:55;;;;;;;2.40;2.20;;;21.70;73.10;;;;;;5077028;28;20520;-81
2023/05/14 03:29:22;;;;;;;2.93;2.73;;;21.70;73.00;;;;;;5076906;28;20544;-82
2023/05/14 03:31:49;;;;;;;3.30;3.00;;;21.70;73.10;;;;;;5076919;28;20438;-82
2023/05/14 03:34:16;;;;;;;2.80;2.60;;;21.70;73.10;;;;;;5076795;28;20986;-86
2023/05/14 03:36:43;;;;;;;2.70;2.50;;;21.70;73.10;;;;;;5076827;28;20438;-88
2023/05/14 03:39:14;;;;;;;2.30;2.20;;;21.70;73.10;;;;;;5076918;28;20445;-82
2023/05/14 03:41:41;;;;;;;3.00;2.70;;;21.70;74.00;;;;;;5076804;28;20465;-81
2023/05/14 03:44:07;;;;;;;2.47;2.27;;;21.70;73.10;;;;;;5076567;28;20469;-82
2023/05/14 03:46:34;;;;;;;2.90;2.70;;;21.70;73.20;;;;;;5076720;28;20827;-81
2023/05/14 03:49:01;;;;;;;2.60;2.40;;;21.70;73.10;;;;;;5076709;28;20430;-81
2023/05/14 03:51:28;;;;;;;3.17;2.97;;;21.70;73.20;;;;;;5076467;28;20954;-82
2023/05/14 03:53:55;;;;;;;2.70;2.50;;;21.70;73.10;;;;;;5076382;28;20476;-82
2023/05/14 03:56:23;;;;;;;2.70;2.50;;;21.70;73.10;;;;;;5076563;28;20436;-82
2023/05/14 03:58:50;;;;;;;2.73;2.53;;;21.70;73.10;;;;;;5076357;28;20477;-81
2023/05/14 04:01:17;;;;;;;3.23;2.40;;;21.70;73.10;;;;;;5076459;28;20808;-81
2023/05/14 04:03:43;;;;;;;2.63;2.43;;;21.70;73.10;;;;;;5076229;28;20492;-81
2023/05/14 04:06:10;;;;;;;2.83;2.63;;;21.70;73.10;;;;;;5076193;28;20444;-85
2023/05/14 04:08:37;;;;;;;3.10;2.90;;;21.70;73.10;;;;;;5076256;28;20444;-88
2023/05/14 04:11:04;;;;;;;2.47;2.27;;;21.70;73.10;;;;;;5076169;28;20563;-81
2023/05/14 04:13:32;;;;;;;3.03;2.83;;;21.60;73.00;;;;;;5075999;28;20817;-81
2023/05/14 04:15:59;;;;;;;2.87;2.67;;;21.70;73.10;;;;;;5076018;28;20853;-81
2023/05/14 04:18:26;;;;;;;2.60;2.40;;;21.70;73.10;;;;;;5076107;28;20448;-82
2023/05/14 04:20:54;;;;;;;2.70;2.50;;;21.70;73.10;;;;;;5076016;28;20442;-81
2023/05/14 04:23:21;;;;;;;3.00;2.80;;;21.70;73.20;;;;;;5076119;28;20523;-81
2023/05/14 04:25:48;;;;;;;2.90;2.67;;;21.70;73.10;;;;;;5075921;28;20467;-82
2023/05/14 04:28:14;;;;;;;2.60;2.40;;;21.70;73.10;;;;;;5075907;28;20438;-81
2023/05/14 04:30:43;;;;;;;2.20;2.10;;;21.70;73.10;;;;;;5075727;28;20819;-81
2023/05/14 04:33:12;;;;;;;3.13;2.93;;;21.70;73.20;;;;;;5075253;28;20439;-81
2023/05/14 04:35:38;;;;;;;3.27;3.00;;;21.70;73.10;;;;;;5075723;28;20491;-81
2023/05/14 04:38:05;;;;;;;3.17;2.97;;;21.70;73.10;;;;;;5075888;28;20440;-88
2023/05/14 04:40:35;;;;;;;3.17;2.90;;;21.70;73.20;;;;;;5075679;28;20772;-88
2023/05/14 04:43:02;;;;;;;2.97;2.77;;;21.60;73.00;;;;;;5075614;28;20516;-81
2023/05/14 04:45:28;;;;;;;2.80;2.60;;;21.70;73.10;;;;;;5075492;28;20537;-82
2023/05/14 04:47:57;;;;;;;2.67;2.53;;;21.70;73.10;;;;;;5075478;28;20447;-80
2023/05/14 04:50:24;;;;;;;2.63;2.53;;;21.70;74.10;;;;;;5075799;28;20524;-81
2023/05/14 04:52:51;;;;;;;2.73;2.53;;;21.70;73.10;;;;;;5075584;28;20514;-81
2023/05/14 04:55:18;;;;;;;3.13;2.90;;;21.70;73.20;;;;;;5075448;28;20529;-82
2023/05/14 04:57:45;;;;;;;2.80;2.60;;;21.70;73.20;;;;;;5075364;28;20533;-82
2023/05/14 05:00:13;;;;;;;3.40;3.20;;;21.70;73.20;;;;;;5075098;28;20979;-82
2023/05/14 05:02:41;;;;;;;2.60;2.40;;;21.70;73.20;;;;;;5075405;28;20547;-83
2023/05/14 05:05:10;;;;;;;2.53;2.33;;;21.70;73.20;;;;;;5075984;28;20956;-88
2023/05/14 05:07:37;;;;;;;2.73;2.60;;;21.70;73.10;;;;;;5075463;28;20445;-88
2023/05/14 05:10:04;;;;;;;2.83;2.63;;;21.70;73.20;;;;;;5075084;28;20472;-81
2023/05/14 05:12:31;;;;;;;2.63;2.43;;;21.70;73.20;;;;;;5075102;28;20986;-82
2023/05/14 05:14:57;;;;;;;3.23;3.03;;;21.70;73.20;;;;;;5074898;28;20485;-82
2023/05/14 05:17:25;;;;;;;2.70;2.50;;;21.70;73.20;;;;;;5075279;28;20529;-81
2023/05/14 05:19:51;;;;;;;2.93;2.73;;;21.70;73.20;;;;;;5075210;28;20437;-81
2023/05/14 05:22:20;;;;;;;2.40;2.20;;;21.70;73.20;;;;;;5074963;28;20449;-87
2023/05/14 05:24:47;;;;;;;3.50;2.60;;;21.70;73.20;;;;;;5074758;28;21006;-81
2023/05/14 05:27:14;;;;;;;2.50;2.30;;;21.60;73.10;;;;;;5074844;28;20494;-81
2023/05/14 05:29:41;;;;;;;2.60;2.40;;;21.70;73.20;;;;;;5074668;28;20457;-81
2023/05/14 05:32:08;;;;;;;2.73;2.53;;;21.70;73.20;;;;;;5074828;28;20444;-80
2023/05/14 05:34:35;;;;;;;6.33;2.60;;;21.70;73.20;;;;;;5074679;28;20493;-84
2023/05/14 05:37:02;;;;;;;2.90;2.10;;;21.70;73.20;;;;;;5074934;28;20448;-81
2023/05/14 05:39:33;;;;;;;2.77;2.57;;;21.70;73.20;;;;;;5074636;28;20436;-88
2023/05/14 05:42:00;;;;;;;3.07;2.83;;;21.70;73.30;;;;;;5074761;28;20436;-81
2023/05/14 05:44:27;;;;;;;2.63;2.43;;;21.70;73.20;;;;;;5073798;28;20436;-81
2023/05/14 05:46:55;;;;;;;2.83;2.63;;;21.70;73.30;;;;;;5074364;28;20536;-81
2023/05/14 05:49:22;;;;;;;3.60;3.17;;;21.70;73.20;;;;;;5074607;28;21000;-88
2023/05/14 05:51:49;;;;;;;3.00;2.80;;;21.70;73.30;;;;;;5074256;28;20515;-81
2023/05/14 05:54:16;;;;;;;2.40;2.30;;;21.70;73.20;;;;;;5074143;28;20484;-82
2023/05/14 05:56:44;;;;;;;2.93;2.73;;;21.70;73.30;;;;;;5074259;28;20488;-82
2023/05/14 05:59:11;;;;;;;3.00;2.80;;;21.70;73.20;;;;;;5074084;28;20500;-80
2023/05/14 06:01:39;;;;;;;2.90;2.70;;;21.70;73.20;;;;;;5074197;28;20469;-81
2023/05/14 06:04:06;;;;;;;2.27;2.17;;;21.70;73.20;;;;;;5073903;28;20488;-87
2023/05/14 06:06:33;;;;;;;2.90;2.70;;;21.70;73.20;;;;;;5073982;28;20491;-88
2023/05/14 06:09:00;;;;;;;2.77;2.57;;;21.70;74.00;;;;;;5074223;28;20437;-81
2023/05/14 06:11:28;;;;;;;2.67;2.47;;;21.70;73.10;;;;;;5074002;28;20803;-81
2023/05/14 06:13:56;;;;;;;3.40;3.20;;;21.70;73.60;;;;;;5073788;28;20436;-88
2023/05/14 06:16:23;;;;;;;2.70;2.50;;;21.70;73.40;;;;;;5074062;28;20858;-88
2023/05/14 06:18:51;;;;;;;2.90;2.70;;;21.70;74.00;;;;;;5073841;28;20935;-89
2023/05/14 06:21:18;;;;;;;2.70;2.50;;;21.70;73.10;;;;;;5072582;28;20507;-88
2023/05/14 06:23:44;;;;;;;2.93;2.73;;;21.70;73.10;;;;;;5073502;28;20946;-81
2023/05/14 06:26:11;;;;;;;2.90;2.70;;;21.70;73.10;;;;;;5077053;28;20451;-87
2023/05/14 06:28:38;;;;;;;2.90;2.70;;;21.70;73.10;;;;;;5076750;28;20532;-81
2023/05/14 06:31:06;;;;;;;3.33;2.73;;;21.70;73.10;;;;;;5076005;28;20461;-89
2023/05/14 06:33:33;;;;;;;2.83;2.63;;;21.70;73.00;;;;;;5074712;28;20873;-81
2023/05/14 06:36:04;;;;;;;3.27;3.07;;;21.70;73.10;;;;;;5075008;28;20489;-82
2023/05/14 06:38:31;;;;;;;2.90;2.70;;;21.70;73.00;;;;;;5074587;28;20438;-82
2023/05/14 06:40:58;;;;;;;2.70;2.50;;;21.70;73.00;;;;;;5075211;28;20465;-88
2023/05/14 06:43:25;;;;;;;2.70;2.50;;;21.70;73.00;;;;;;5074417;28;20517;-82
2023/05/14 06:45:52;;;;;;;2.83;2.63;;;21.70;73.00;;;;;;5074213;28;20524;-87
2023/05/14 06:48:21;;;;;;;3.40;3.17;;;21.70;72.90;;;;;;5074034;28;21079;-88
2023/05/14 06:50:49;;;;;;;2.90;2.70;;;21.80;73.00;;;;;;5074689;28;20442;-88
2023/05/14 06:53:17;;;;;;;2.80;2.60;;;21.80;73.80;;;;;;5074509;28;20532;-83
2023/05/14 06:55:47;;;;;;;2.50;2.30;;;21.80;72.90;;;;;;5074479;28;20592;-82
2023/05/14 06:58:13;;;;;;;2.80;2.60;;;21.80;72.90;;;;;;5074638;28;20431;-88
2023/05/14 07:00:40;;;;;;;3.43;3.20;;;21.80;72.90;;;;;;5073450;28;20542;-82
2023/05/14 07:03:07;;;;;;;2.53;2.40;;;21.80;72.80;;;;;;5074890;28;20522;-88
2023/05/14 07:05:36;;;;;;;2.37;2.27;;;21.80;72.80;;;;;;5073771;28;20532;-87
2023/05/14 07:08:02;;;;;;;2.93;2.70;;;21.80;72.70;;;;;;5074483;28;20430;-81
2023/05/14 07:10:31;;;;;;;2.97;2.77;;;21.80;72.60;;;;;;5073466;28;20466;-81
2023/05/14 07:12:58;;;;;;;2.53;2.37;;;21.80;72.60;;;;;;5074412;28;20460;-87
2023/05/14 07:15:25;;;;;;;3.17;2.97;;;21.80;72.50;;;;;;5073543;28;20577;-87
2023/05/14 07:17:52;;;;;;;3.10;2.90;;;21.80;72.60;;;;;;5074126;28;20995;-88
2023/05/14 07:20:23;;;;;;;3.10;2.80;;;21.80;72.60;;;;;;5074316;28;20532;-86
2023/05/14 07:22:52;;;;;;;3.00;2.80;;;21.90;72.70;;;;;;5073535;28;20814;-88
2023/05/14 07:25:19;;;;;;;2.67;2.47;;;21.90;72.60;;;;;;5073732;28;21030;-82
2023/05/14 07:27:46;;;;;;;2.87;2.67;;;21.90;72.60;;;;;;5073187;28;20444;-82
2023/05/14 07:30:13;;;;;;;2.93;2.73;;;21.90;72.50;;;;;;5074051;28;20467;-87
2023/05/14 07:32:41;;;;;;;2.90;2.70;;;21.90;72.40;;;;;;5073384;28;20922;-87
2023/05/14 07:35:10;;;;;;;2.77;2.57;;;21.90;72.30;;;;;;5073229;28;20576;-88
2023/05/14 07:37:37;;;;;;;3.20;3.00;;;21.90;72.30;;;;;;5073274;28;20441;-82
2023/05/14 07:40:08;;;;;;;2.63;2.33;;;21.90;73.10;;;;;;5073538;28;20436;-82
2023/05/14 07:42:35;;;;;;;2.57;2.37;;;21.90;72.20;;;;;;5072997;28;20859;-85
2023/05/14 07:45:02;;;;;;;2.90;2.70;;;21.90;72.20;;;;;;5073155;28;20518;-82
2023/05/14 07:47:29;;;;;;;3.13;2.93;;;21.90;72.20;;;;;;5073270;28;20485;-89
2023/05/14 07:49:57;;;;;;;2.23;2.13;;;21.90;72.20;;;;;;5073154;28;20446;-89
2023/05/14 07:52:24;;;;;;;2.60;2.40;;;21.90;72.10;;;;;;5072791;28;20447;-89
2023/05/14 07:54:51;;;;;;;2.63;2.43;;;21.90;72.20;;;;;;5073257;28;20480;-82
2023/05/14 07:57:19;;;;;;;2.60;2.40;;;21.90;72.10;;;;;;5073110;28;20990;-83
2023/05/14 07:59:47;;;;;;;3.23;3.03;;;22.00;72.30;;;;;;5072603;28;20453;-82
2023/05/14 08:02:14;;;;;;;2.00;1.90;;;22.00;72.20;;;;;;5072591;28;20441;-88
2023/05/14 08:04:41;;;;;;;2.40;2.20;;;21.90;72.10;;;;;;5072452;28;20439;-82
2023/05/14 08:07:09;;;;;;;2.40;2.27;;;22.00;72.30;;;;;;5072515;28;20441;-88
2023/05/14 08:09:36;;;;;;;2.57;2.37;;;22.00;72.30;;;;;;5075159;28;20851;-82
2023/05/14 08:12:03;;;;;;;2.60;2.40;;;22.00;72.30;;;;;;5076286;28;20436;-82
2023/05/14 08:14:31;;;;;;;2.00;1.90;;;22.00;72.30;;;;;;5076626;28;20437;-82
2023/05/14 08:16:57;;;;;;;2.90;2.70;;;22.00;72.40;;;;;;5076125;28;20921;-82
2023/05/14 08:19:26;;;;;;;1.90;1.80;;;22.00;72.30;;;;;;5075988;28;20436;-83
2023/05/14 08:21:53;;;;;;;2.20;2.10;;;22.00;72.50;;;;;;5075876;28;20500;-81
2023/05/14 08:24:20;;;;;;;2.50;2.30;;;22.00;72.50;;;;;;5075775;28;20524;-82
2023/05/14 08:26:47;;;;;;;2.87;2.63;;;22.00;72.50;;;;;;5076087;28;20534;-88
2023/05/14 08:29:14;;;;;;;2.53;2.40;;;22.00;73.40;;;;;;5075901;28;20454;-82
2023/05/14 08:31:42;;;;;;;2.30;2.20;;;22.00;72.50;;;;;;5075953;28;20441;-82
2023/05/14 08:34:09;;;;;;;2.20;2.07;;;22.00;72.60;;;;;;5075884;28;20448;-82
2023/05/14 08:36:36;;;;;;;2.57;2.40;;;22.00;72.50;;;;;;5075741;28;20567;-82
2023/05/14 08:39:03;;;;;;;2.70;2.50;;;22.00;72.50;;;;;;5075762;28;20442;-82
2023/05/14 08:41:30;;;;;;;2.30;2.20;;;22.00;72.60;;;;;;5075709;28;20444;-87
2023/05/14 08:44:06;;;;;;;2.10;2.00;;;22.10;72.60;;;;;;5075509;28;20943;-87
2023/05/14 08:46:35;;;;;;;2.20;2.00;;;22.10;72.70;;;;;;5075777;28;20905;-87
2023/05/14 08:49:14;;;;;;;3.00;2.80;;;22.10;72.80;;;;;;5075678;28;20516;-87
2023/05/14 08:51:42;;;;;;;2.40;2.30;;;22.10;72.80;;;;;;5075517;28;20445;-89
2023/05/14 08:54:10;;;;;;;2.53;2.23;;;22.10;72.80;;;;;;5075616;28;20438;-83
2023/05/14 08:56:39;;;;;;;2.43;2.23;;;22.10;72.90;;;;;;5075289;28;20494;-82
2023/05/14 08:59:06;;;;;;;2.10;2.00;;;22.10;73.00;;;;;;5075291;28;20464;-82
2023/05/14 09:01:33;;;;;;;2.17;2.03;;;22.10;72.90;;;;;;5075510;28;20843;-83
2023/05/14 09:04:05;;;;;;;2.33;2.20;;;22.10;73.00;;;;;;5075093;28;20443;-83
2023/05/14 09:06:36;;;;;;;2.40;2.20;;;22.10;73.00;;;;;;5075480;28;20453;-83
2023/05/14 09:09:03;;;;;;;2.50;2.30;;;22.10;73.00;;;;;;5075180;28;21010;-83
2023/05/14 09:11:30;;;;;;;2.10;2.00;;;22.10;72.90;;;;;;5074931;28;20480;-86
2023/05/14 09:13:57;;;;;;;2.47;2.30;;;22.10;73.90;;;;;;5075053;28;20533;-82
2023/05/14 09:16:26;;;;;;;2.00;1.90;;;22.10;73.10;;;;;;5075066;28;20485;-82
2023/05/14 09:18:53;;;;;;;1.87;1.77;;;22.10;73.10;;;;;;5074902;28;20438;-83
2023/05/14 09:21:20;;;;;;;2.20;2.10;;;22.20;73.90;;;;;;5075092;28;20437;-83
2023/05/14 09:23:53;;;;;;;2.40;2.30;;;22.20;73.20;;;;;;5074863;28;20863;-87
2023/05/14 09:26:23;;;;;;;2.40;2.20;;;22.20;73.20;;;;;;5074966;28;20868;-89
2023/05/14 09:28:54;;;;;;;2.00;1.90;;;22.20;73.10;;;;;;5074902;28;20527;-89
2023/05/14 09:31:21;;;;;;;2.20;2.10;;;22.20;73.20;;;;;;5074480;28;20442;-82
2023/05/14 09:33:50;;;;;;;1.93;1.83;;;22.20;73.10;;;;;;5074601;28;20445;-88
2023/05/14 09:36:17;;;;;;;2.17;2.07;;;22.20;73.10;;;;;;5074552;28;20496;-88
2023/05/14 09:38:45;;;;;;;2.37;2.20;;;22.20;73.20;;;;;;5074428;28;20442;-85
2023/05/14 09:41:13;;;;;;;2.13;1.93;;;22.20;73.10;;;;;;5074506;28;20437;-89
2023/05/14 09:43:40;;;;;;;2.27;2.17;;;22.20;73.10;;;;;;5074230;28;20467;-82
2023/05/14 09:46:06;;;;;;;2.10;1.90;;;22.20;73.10;;;;;;5074416;28;20533;-81
2023/05/14 09:48:33;;;;;;;2.20;2.10;;;22.30;73.20;;;;;;5074528;28;20444;-81
2023/05/14 09:51:00;;;;;;;2.10;2.00;;;22.30;73.30;;;;;;5074269;28;20442;-82
2023/05/14 09:53:29;;;;;;;2.50;2.33;;;22.30;73.30;;;;;;5074319;28;20450;-89
2023/05/14 09:55:56;;;;;;;2.63;2.10;;;22.30;73.20;;;;;;5074193;28;20473;-81
2023/05/14 09:58:25;;;;;;;2.23;2.03;;;22.30;72.90;;;;;;5074216;28;20531;-82
2023/05/14 10:00:53;;;;;;;2.03;1.93;;;22.30;73.20;;;;;;5074040;28;20466;-82
2023/05/14 10:03:22;;;;;;;2.00;1.90;;;22.30;73.20;;;;;;5074154;28;20438;-82
2023/05/14 10:05:50;;;;;;;2.03;1.93;;;22.40;73.20;;;;;;5073978;28;20545;-82
2023/05/14 10:08:24;;;;;;;2.03;1.93;;;22.30;73.10;;;;;;5074105;28;20441;-83
2023/05/14 10:10:53;;;;;;;1.63;1.53;;;22.40;73.30;;;;;;5073848;28;20562;-82
2023/05/14 10:13:22;;;;;;;1.73;1.63;;;22.30;73.00;;;;;;5073878;28;20474;-88
2023/05/14 10:15:55;;;;;;;2.10;2.00;;;22.40;73.30;;;;;;5073904;28;20481;-82
2023/05/14 10:18:24;;;;;;;1.97;1.87;;;22.40;73.20;;;;;;5073936;28;20450;-82
2023/05/14 10:21:02;;;;;;;2.17;1.97;;;22.40;73.10;;;;;;5073727;28;20477;-82
2023/05/14 10:23:30;;;;;;;2.07;1.97;;;22.40;73.10;;;;;;5073848;28;20439;-88
2023/05/14 10:25:57;;;;;;;2.20;2.10;;;22.40;73.10;;;;;;5073702;28;20967;-82
2023/05/14 10:28:24;;;;;;;1.87;1.77;;;22.40;73.10;;;;;;5073585;28;20442;-83
2023/05/14 10:30:53;;;;;;;1.90;1.80;;;22.50;73.30;;;;;;5073135;28;20957;-82
2023/05/14 10:33:20;;;;;;;1.90;1.80;;;22.50;73.30;;;;;;5073749;28;20447;-82
2023/05/14 10:36:03;;;;;;;1.97;1.83;;;22.40;73.20;;;;;;5073474;28;20521;-82
2023/05/14 10:38:32;;;;;;;1.80;1.70;;;22.50;73.30;;;;;;5073713;28;20503;-82
2023/05/14 10:41:01;;;;;;;2.47;2.27;;;22.50;73.10;;;;;;5073475;28;20805;-82
2023/05/14 10:43:29;;;;;;;1.83;1.73;;;22.50;73.20;;;;;;5073436;28;20546;-89
2023/05/14 10:45:59;;;;;;;1.83;1.70;;;22.50;73.10;;;;;;5073167;28;20437;-83
2023/05/14 10:48:26;;;;;;;1.77;1.67;;;22.50;73.10;;;;;;5073494;28;20528;-88
2023/05/14 10:50:54;;;;;;;1.80;1.70;;;22.50;73.00;;;;;;5073525;28;20440;-83
2023/05/14 10:53:21;;;;;;;2.20;2.10;;;22.50;73.00;;;;;;5073377;28;20442;-89
2023/05/14 10:55:48;;;;;;;1.50;1.40;;;22.50;73.90;;;;;;5073154;28;20560;-84
2023/05/14 10:58:15;;;;;;;2.47;2.27;;;22.50;73.10;;;;;;5073430;28;20457;-81
2023/05/14 11:00:42;;;;;;;1.67;1.57;;;22.60;73.00;;;;;;5073187;28;20644;-81
2023/05/14 11:03:11;;;;;;;1.80;1.70;;;22.50;73.00;;;;;;5073179;28;20525;-87
2023/05/14 11:05:40;;;;;;;1.80;1.70;;;22.50;73.20;;;;;;5073184;28;20534;-82
2023/05/14 11:08:08;;;;;;;1.97;1.87;;;22.60;73.10;;;;;;5073283;28;20529;-82
2023/05/14 11:10:35;;;;;;;2.13;2.03;;;22.60;72.90;;;;;;5072930;28;20467;-82
2023/05/14 11:13:02;;;;;;;2.30;2.10;;;22.60;74.00;;;;;;5073219;28;20443;-82
2023/05/14 11:15:29;;;;;;;2.07;1.97;;;22.60;73.10;;;;;;5073085;28;20441;-82
2023/05/14 11:17:56;;;;;;;1.70;1.60;;;22.60;73.20;;;;;;5073003;28;20443;-82
2023/05/14 11:20:24;;;;;;;2.00;1.90;;;22.60;73.10;;;;;;5073145;28;20530;-82
2023/05/14 11:22:51;;;;;;;1.70;1.60;;;22.60;73.10;;;;;;5073245;28;20469;-82
2023/05/14 11:25:18;;;;;;;2.33;1.40;;;22.60;73.20;;;;;;5072905;28;20489;-82
2023/05/14 11:27:46;;;;;;;1.73;1.63;;;22.60;73.20;;;;;;5073040;28;20451;-82
2023/05/14 11:30:15;;;;;;;1.90;1.80;;;22.60;73.00;;;;;;5072891;28;20473;-81
2023/05/14 11:32:44;;;;;;;2.00;1.90;;;22.70;73.30;;;;;;5072933;28;20450;-81
2023/05/14 11:35:10;;;;;;;1.80;1.70;;;22.60;73.00;;;;;;5073009;28;20514;-81
2023/05/14 11:37:39;;;;;;;1.73;1.63;;;22.60;73.00;;;;;;5072720;28;20491;-82
2023/05/14 11:40:09;;;;;;;1.70;1.60;;;22.70;73.30;;;;;;5072840;28;20503;-82
2023/05/14 11:42:37;;;;;;;1.70;1.60;;;22.70;73.20;;;;;;5072823;28;20448;-82
2023/05/14 11:45:05;;;;;;;1.47;1.37;;;22.60;72.90;;;;;;5076414;28;20491;-82
2023/05/14 11:47:32;;;;;;;1.50;1.40;;;22.70;73.10;;;;;;5076714;28;20438;-81
2023/05/14 11:50:00;;;;;;;1.50;1.40;;;22.70;73.20;;;;;;5076658;28;20446;-82
2023/05/14 11:52:27;;;;;;;1.60;1.50;;;22.70;73.10;;;;;;5076786;28;20447;-82
2023/05/14 11:54:55;;;;;;;1.80;1.70;;;22.70;73.00;;;;;;5076552;28;20529;-82
2023/05/14 11:57:23;;;;;;;1.80;1.70;;;22.70;73.20;;;;;;5076420;28;20861;-82
2023/05/14 11:59:56;;;;;;;1.73;1.63;;;22.70;73.20;;;;;;5076319;28;20549;-81
2023/05/14 12:02:26;;;;;;;2.53;2.33;;;22.70;73.10;;;;;;5076509;28;20792;-81
2023/05/14 12:04:53;;;;;;;1.80;1.70;;;22.70;73.10;;;;;;5076208;28;20433;-82
2023/05/14 12:07:20;;;;;;;1.70;1.60;;;22.70;72.90;;;;;;5076540;28;20435;-81
2023/05/14 12:09:49;;;;;;;1.30;1.20;;;22.70;73.10;;;;;;5076069;28;20472;-82
2023/05/14 12:12:18;;;;;;;1.97;1.87;;;22.70;73.10;;;;;;5076336;28;20438;-82
2023/05/14 12:14:45;;;;;;;1.87;1.77;;;22.70;73.10;;;;;;5076086;28;20437;-82
2023/05/14 12:17:14;;;;;;;2.10;2.00;;;22.70;73.00;;;;;;5076121;28;20494;-82
2023/05/14 12:19:42;;;;;;;1.50;1.40;;;22.70;73.00;;;;;;5076258;28;20447;-82
2023/05/14 12:22:10;;;;;;;1.63;1.53;;;22.70;73.10;;;;;;5076136;28;20463;-82
2023/05/14 12:24:38;;;;;;;1.73;1.63;;;22.70;73.10;;;;;;5075902;28;20442;-82
2023/05/14 12:27:05;;;;;;;1.40;1.30;;;22.80;73.10;;;;;;5076001;28;20443;-84
2023/05/14 12:29:36;;;;;;;1.70;1.60;;;22.80;73.10;;;;;;5075739;28;20462;-82
2023/05/14 12:32:07;;;;;;;1.60;1.43;;;22.80;73.00;;;;;;5075935;28;20436;-83
2023/05/14 12:34:34;;;;;;;1.50;1.40;;;22.80;73.00;;;;;;5075759;28;20457;-82
2023/05/14 12:37:01;;;;;;;1.67;1.57;;;22.80;72.90;;;;;;5075704;28;20509;-82
2023/05/14 12:39:28;;;;;;;1.73;1.63;;;22.80;73.00;;;;;;5075760;28;20439;-81
2023/05/14 12:41:55;;;;;;;1.97;1.87;;;22.80;73.50;;;;;;5075630;28;20451;-82
2023/05/14 12:44:22;;;;;;;1.60;1.50;;;22.80;72.90;;;;;;5075552;28;20526;-83
2023/05/14 12:46:50;;;;;;;1.43;1.33;;;22.80;73.00;;;;;;5075652;28;20500;-83
2023/05/14 12:49:17;;;;;;;1.47;1.37;;;22.80;73.10;;;;;;5075732;28;20444;-82
2023/05/14 12:51:45;;;;;;;1.60;1.50;;;22.80;72.90;;;;;;5075605;28;20472;-82